Time;durP1;ratioP1;P1;durP2;ratioP2;P2;SDS_P1;SDS_P2;PMS_P1;PMS_P2;Temp;Humidity;BMP_temperature;BMP_pressure;BME280_temperature;BME280_humidity;BME280_pressure;Samples;Min_cycle;Max_cycle;Signal;HPM_P1;HPM_P2
2021/12/11 00:00:52;;;;;;;17.90;10.93;;;2.10;84.70;;;;;;5034980;28;20325;-67
2021/12/11 00:03:32;;;;;;;19.10;11.68;;;2.10;84.90;;;;;;5031152;28;20486;-67
2021/12/11 00:06:04;;;;;;;18.02;10.75;;;2.20;84.80;;;;;;5051406;28;20099;-68
2021/12/11 00:08:31;;;;;;;16.05;10.52;;;2.20;84.80;;;;;;5044851;28;20061;-68
2021/12/11 00:11:09;;;;;;;16.98;10.60;;;2.20;84.60;;;;;;5030574;28;20107;-67
2021/12/11 00:13:39;;;;;;;20.02;11.02;;;2.20;84.70;;;;;;5043419;28;20071;-68
2021/12/11 00:16:07;;;;;;;15.63;10.45;;;2.20;84.70;;;;;;5050059;28;20041;-68
2021/12/11 00:18:33;;;;;;;16.42;10.77;;;2.20;84.60;;;;;;5047475;28;20041;-67
2021/12/11 00:21:19;;;;;;;15.40;10.20;;;2.30;84.50;;;;;;5047273;28;20051;-65
2021/12/11 00:23:55;;;;;;;16.25;10.60;;;2.30;84.40;;;;;;5051566;28;20934;-68
2021/12/11 00:26:30;;;;;;;13.90;10.02;;;2.20;84.40;;;;;;5040897;28;20052;-68
2021/12/11 00:28:56;;;;;;;16.08;10.30;;;2.20;84.50;;;;;;5030976;28;20054;-68
2021/12/11 00:31:23;;;;;;;14.02;9.10;;;2.20;84.50;;;;;;5040813;28;20037;-68
2021/12/11 00:33:51;;;;;;;15.80;10.20;;;2.10;84.40;;;;;;5046042;28;20129;-67
2021/12/11 00:36:21;;;;;;;15.57;9.65;;;2.20;84.40;;;;;;5031537;28;20045;-68
2021/12/11 00:38:49;;;;;;;14.27;9.52;;;2.20;84.50;;;;;;5050516;28;20127;-67
2021/12/11 00:41:18;;;;;;;17.73;10.02;;;2.20;84.40;;;;;;5047066;28;20050;-68
2021/12/11 00:43:45;;;;;;;15.55;9.35;;;2.10;84.30;;;;;;5031162;28;20486;-68
2021/12/11 00:46:15;;;;;;;15.90;9.60;;;2.10;84.40;;;;;;5046230;28;20509;-68
2021/12/11 00:48:42;;;;;;;13.85;9.43;;;2.10;84.40;;;;;;5051111;28;20048;-67
2021/12/11 00:51:19;;;;;;;13.73;9.55;;;2.10;84.40;;;;;;5050498;28;20418;-67
2021/12/11 00:53:47;;;;;;;16.05;9.52;;;2.20;84.40;;;;;;5049442;28;20056;-67
2021/12/11 00:56:17;;;;;;;16.08;9.65;;;2.10;84.20;;;;;;5051034;28;20041;-67
2021/12/11 00:58:44;;;;;;;17.75;9.63;;;2.10;84.30;;;;;;5050852;28;20052;-68
2021/12/11 01:01:27;;;;;;;18.58;10.55;;;2.10;84.20;;;;;;5050552;28;20041;-67
2021/12/11 01:04:16;;;;;;;15.68;10.02;;;2.10;84.10;;;;;;5049701;28;20410;-67
2021/12/11 01:06:50;;;;;;;13.85;9.02;;;2.00;84.10;;;;;;5046653;28;20036;-67
2021/12/11 01:09:19;;;;;;;12.95;9.43;;;1.80;84.10;;;;;;5039507;28;20045;-67
2021/12/11 01:11:50;;;;;;;17.58;8.43;;;1.80;84.10;;;;;;5048376;28;20059;-67
2021/12/11 01:14:40;;;;;;;13.05;9.32;;;1.70;84.10;;;;;;5049927;28;20425;-67
2021/12/11 01:17:21;;;;;;;20.10;11.20;;;1.70;84.30;;;;;;5035794;28;20557;-67
2021/12/11 01:19:51;;;;;;;25.33;11.98;;;1.70;84.30;;;;;;5029920;28;20048;-67
2021/12/11 01:22:34;;;;;;;16.25;9.57;;;1.70;84.30;;;;;;5030392;28;20099;-67
2021/12/11 01:25:06;;;;;;;18.83;10.45;;;1.60;84.40;;;;;;5035787;28;20065;-68
2021/12/11 01:27:32;;;;;;;15.00;10.43;;;1.60;84.60;;;;;;5046302;28;20042;-67
2021/12/11 01:29:59;;;;;;;17.02;9.10;;;1.50;84.60;;;;;;5032013;28;20522;-68
2021/12/11 01:32:28;;;;;;;14.82;10.35;;;1.50;84.80;;;;;;5029388;28;20085;-67
2021/12/11 01:34:55;;;;;;;20.13;10.30;;;1.50;84.90;;;;;;5028841;28;20045;-68
2021/12/11 01:37:21;;;;;;;15.60;10.05;;;1.50;85.00;;;;;;5033663;28;20068;-68
2021/12/11 01:39:49;;;;;;;15.23;10.25;;;1.50;85.10;;;;;;5030012;28;20045;-67
2021/12/11 01:42:20;;;;;;;14.13;9.45;;;1.60;85.10;;;;;;5040794;28;20133;-67
2021/12/11 01:44:48;;;;;;;17.10;9.80;;;1.60;85.10;;;;;;5048619;28;20044;-68
2021/12/11 01:47:18;;;;;;;12.65;8.63;;;1.60;84.90;;;;;;5050129;28;20084;-68
2021/12/11 01:49:55;;;;;;;14.35;9.07;;;1.60;84.80;;;;;;5043150;28;20052;-68
2021/12/11 01:52:37;;;;;;;13.55;8.95;;;1.60;84.70;;;;;;5024310;28;20045;-68
2021/12/11 01:55:12;;;;;;;;;;;1.60;84.60;;;;;;5049599;28;20052;-68
2021/12/11 01:57:38;;;;;;;16.02;9.38;;;1.50;84.20;;;;;;5048853;28;19970;-68
2021/12/11 02:00:15;;;;;;;14.57;9.82;;;1.50;84.50;;;;;;5049532;28;20045;-67
2021/12/11 02:02:48;;;;;;;16.55;9.07;;;1.60;84.50;;;;;;5048916;28;20040;-67
2021/12/11 02:05:23;;;;;;;16.25;8.93;;;1.60;84.40;;;;;;5049114;28;20041;-68
2021/12/11 02:07:52;;;;;;;14.95;8.73;;;1.50;84.40;;;;;;5049107;28;20417;-67
2021/12/11 02:10:34;;;;;;;16.42;8.65;;;1.50;84.20;;;;;;5048934;28;20049;-68
2021/12/11 02:13:04;;;;;;;15.50;8.60;;;1.40;84.20;;;;;;5043519;28;20099;-68
2021/12/11 02:15:35;;;;;;;15.27;9.52;;;1.40;84.10;;;;;;5044588;28;20033;-68
2021/12/11 02:18:11;;;;;;;16.43;9.43;;;1.40;84.10;;;;;;5049438;28;20129;-68
2021/12/11 02:20:41;;;;;;;19.23;9.70;;;1.30;84.10;;;;;;5048889;28;20041;-67
2021/12/11 02:23:08;;;;;;;17.83;9.60;;;1.30;84.10;;;;;;5049365;28;20125;-67
2021/12/11 02:25:41;;;;;;;13.52;8.80;;;1.20;83.90;;;;;;5048666;28;20049;-67
2021/12/11 02:28:19;;;;;;;14.20;9.70;;;1.20;83.90;;;;;;5049331;28;20037;-67
2021/12/11 02:31:07;;;;;;;15.48;9.77;;;1.20;84.10;;;;;;5030884;28;20128;-67
2021/12/11 02:33:39;;;;;;;14.77;8.88;;;1.10;84.10;;;;;;5048791;28;20107;-67
2021/12/11 02:36:11;;;;;;;16.55;9.05;;;1.10;84.10;;;;;;5048232;28;20041;-68
2021/12/11 02:39:08;;;;;;;13.98;8.55;;;1.10;84.10;;;;;;5049022;28;20123;-68
2021/12/11 02:42:10;;;;;;;13.20;8.25;;;1.10;84.20;;;;;;5029287;28;20111;-67
2021/12/11 02:45:15;;;;;;;14.18;8.73;;;1.10;84.10;;;;;;5044525;28;20490;-67
2021/12/11 02:47:46;;;;;;;13.52;8.23;;;1.00;83.90;;;;;;5006146;28;20125;-67
2021/12/11 02:50:33;;;;;;;12.63;9.15;;;1.00;84.20;;;;;;5006152;28;20058;-67
2021/12/11 02:53:04;;;;;;;12.68;8.02;;;1.00;84.10;;;;;;5024735;28;20175;-67
2021/12/11 02:55:38;;;;;;;13.82;8.40;;;0.90;84.10;;;;;;5048745;28;20041;-67
2021/12/11 02:58:20;;;;;;;14.68;9.13;;;1.00;84.10;;;;;;5049045;28;20122;-67
2021/12/11 03:01:04;;;;;;;14.65;9.45;;;1.00;84.20;;;;;;5047782;28;20079;-67
2021/12/11 03:03:35;;;;;;;20.90;9.30;;;1.00;84.30;;;;;;5048717;28;20044;-67
2021/12/11 03:06:13;;;;;;;14.90;10.53;;;0.90;84.40;;;;;;5047326;28;20191;-67
2021/12/11 03:08:41;;;;;;;21.58;10.75;;;0.90;84.70;;;;;;5050163;28;20094;-67
2021/12/11 03:11:11;;;;;;;16.63;11.05;;;0.90;84.70;;;;;;5052225;28;20037;-67
2021/12/11 03:13:39;;;;;;;17.92;10.38;;;1.00;84.90;;;;;;5050605;28;20048;-67
2021/12/11 03:16:07;;;;;;;19.10;11.45;;;1.00;84.90;;;;;;5050948;28;20055;-67
2021/12/11 03:18:33;;;;;;;20.05;11.02;;;1.00;85.00;;;;;;5052699;28;20041;-67
2021/12/11 03:20:59;;;;;;;15.95;9.80;;;1.00;85.30;;;;;;5051807;28;20098;-68
2021/12/11 03:23:25;;;;;;;19.70;12.70;;;1.10;85.40;;;;;;5050892;28;20048;-67
2021/12/11 03:25:51;;;;;;;17.67;11.07;;;1.10;85.40;;;;;;5051840;28;20045;-67
2021/12/11 03:28:19;;;;;;;19.58;9.68;;;1.20;85.30;;;;;;5052404;28;20041;-67
2021/12/11 03:30:56;;;;;;;15.50;10.85;;;1.10;84.80;;;;;;5051405;28;20549;-67
2021/12/11 03:33:23;;;;;;;17.17;9.52;;;1.00;84.50;;;;;;5052282;28;20136;-67
2021/12/11 03:35:49;;;;;;;15.43;8.95;;;0.90;84.30;;;;;;5052028;28;20045;-67
2021/12/11 03:38:15;;;;;;;15.02;10.02;;;0.90;84.40;;;;;;5052095;28;20055;-67
2021/12/11 03:40:42;;;;;;;17.25;10.35;;;0.90;84.50;;;;;;5052022;28;20072;-67
2021/12/11 03:43:11;;;;;;;14.30;9.95;;;1.00;84.50;;;;;;5051224;28;20037;-67
2021/12/11 03:45:40;;;;;;;21.17;10.20;;;0.90;84.40;;;;;;5051744;28;20044;-67
2021/12/11 03:48:18;;;;;;;16.33;8.80;;;1.00;84.60;;;;;;5052178;28;20489;-67
2021/12/11 03:50:45;;;;;;;17.48;9.88;;;1.00;84.60;;;;;;5050702;28;20483;-67
2021/12/11 03:53:11;;;;;;;15.77;9.30;;;1.00;84.50;;;;;;5051874;28;20037;-67
2021/12/11 03:55:46;;;;;;;18.60;10.30;;;1.00;84.40;;;;;;5033446;28;20053;-67
2021/12/11 03:58:15;;;;;;;17.17;10.00;;;1.00;84.40;;;;;;5052080;28;20048;-67
2021/12/11 04:00:45;;;;;;;16.95;9.77;;;1.00;84.30;;;;;;5050499;28;20139;-67
2021/12/11 04:03:14;;;;;;;15.98;9.30;;;1.00;84.30;;;;;;5050374;28;20053;-67
2021/12/11 04:05:42;;;;;;;16.08;10.68;;;1.00;84.30;;;;;;5051156;28;20080;-67
2021/12/11 04:08:13;;;;;;;17.13;9.75;;;1.00;84.20;;;;;;5046277;28;20125;-67
2021/12/11 04:10:38;;;;;;;14.05;9.60;;;1.00;84.30;;;;;;5032598;28;20041;-66
2021/12/11 04:13:06;;;;;;;17.88;9.45;;;0.90;84.20;;;;;;5051305;28;20102;-67
2021/12/11 04:15:33;;;;;;;19.00;9.05;;;0.90;84.30;;;;;;5050961;28;20120;-67
2021/12/11 04:18:00;;;;;;;14.32;9.55;;;0.90;84.30;;;;;;5049718;28;20581;-67
2021/12/11 04:20:28;;;;;;;15.23;8.65;;;0.80;84.30;;;;;;5049012;28;20041;-66
2021/12/11 04:22:54;;;;;;;17.35;10.60;;;0.80;84.40;;;;;;5042336;28;20102;-67
2021/12/11 04:25:25;;;;;;;15.43;10.02;;;0.80;84.50;;;;;;5051683;28;20490;-67
2021/12/11 04:27:52;;;;;;;16.02;9.23;;;0.80;84.60;;;;;;5050377;28;20052;-67
2021/12/11 04:30:21;;;;;;;17.63;10.75;;;0.90;84.70;;;;;;5051034;28;20037;-67
2021/12/11 04:32:47;;;;;;;16.92;10.38;;;0.90;84.70;;;;;;5051164;28;20049;-67
2021/12/11 04:35:15;;;;;;;19.75;11.63;;;1.00;84.80;;;;;;5050127;28;20041;-67
2021/12/11 04:37:41;;;;;;;15.95;9.98;;;1.00;84.70;;;;;;5050434;28;20098;-67
2021/12/11 04:40:18;;;;;;;18.75;10.90;;;1.00;84.70;;;;;;5050337;28;20064;-67
2021/12/11 04:45:19;;;;;;;17.58;11.25;;;1.00;85.10;;;;;;5051135;28;20084;-67
2021/12/11 04:47:55;;;;;;;17.30;11.27;;;1.00;85.20;;;;;;5049758;28;20099;-67
2021/12/11 04:50:32;;;;;;;19.05;10.90;;;1.10;85.20;;;;;;5050269;28;20056;-67
2021/12/11 04:52:59;;;;;;;16.83;10.45;;;1.10;84.90;;;;;;5049075;28;20472;-67
2021/12/11 04:56:30;;;;;;;16.40;10.52;;;1.10;84.70;;;;;;5050311;28;20045;-67
2021/12/11 04:58:47;;;;;;;17.15;11.05;;;1.20;84.70;;;;;;5049719;28;20049;-67
2021/12/11 05:06:35;;;;;;;16.65;9.65;;;1.10;84.40;;;;;;5050432;28;20076;-67
2021/12/11 05:09:23;;;;;;;17.58;10.02;;;1.10;84.40;;;;;;5049096;28;20484;-67
2021/12/11 05:14:52;;;;;;;18.30;10.82;;;1.20;84.40;;;;;;5031392;28;20054;-67
2021/12/11 05:17:19;;;;;;;13.25;8.90;;;1.10;84.20;;;;;;5030719;28;20120;-67
2021/12/11 05:19:46;;;;;;;15.82;9.65;;;1.20;84.20;;;;;;5030100;28;20049;-67
2021/12/11 05:22:12;;;;;;;15.57;9.70;;;1.20;84.00;;;;;;5012059;28;20049;-67
2021/12/11 05:24:41;;;;;;;15.75;10.38;;;1.20;83.90;;;;;;5030336;28;20044;-66
2021/12/11 05:27:07;;;;;;;17.50;9.90;;;1.20;83.90;;;;;;5030596;28;20516;-66
2021/12/11 05:29:33;;;;;;;16.52;10.27;;;1.10;83.70;;;;;;5029897;28;20045;-66
2021/12/11 05:32:00;;;;;;;17.50;10.35;;;1.10;83.70;;;;;;5029826;28;20128;-66
2021/12/11 05:34:25;;;;;;;25.77;11.45;;;1.20;83.70;;;;;;5030165;28;20508;-66
2021/12/11 05:36:51;;;;;;;15.32;10.05;;;1.10;83.70;;;;;;5029190;28;20049;-66
2021/12/11 05:39:19;;;;;;;15.02;10.60;;;1.20;83.60;;;;;;5045790;28;20052;-67
2021/12/11 05:41:46;;;;;;;14.25;8.77;;;1.10;83.50;;;;;;5049745;28;20532;-65
2021/12/11 05:44:12;;;;;;;13.07;9.52;;;1.10;83.40;;;;;;5048562;28;20140;-66
2021/12/11 05:46:39;;;;;;;14.68;9.23;;;1.00;83.40;;;;;;5049182;28;20037;-66
2021/12/11 05:49:06;;;;;;;19.02;9.35;;;1.00;83.30;;;;;;5049840;28;20048;-66
2021/12/11 05:51:38;;;;;;;13.00;8.73;;;0.90;83.30;;;;;;5049852;28;20052;-66
2021/12/11 05:54:15;;;;;;;15.70;9.70;;;0.90;83.40;;;;;;5048536;28;20113;-66
2021/12/11 05:56:42;;;;;;;14.13;9.13;;;0.90;83.40;;;;;;5042633;28;20095;-65
2021/12/11 05:59:11;;;;;;;21.35;10.75;;;0.90;83.40;;;;;;5047899;28;20057;-66
2021/12/11 06:01:38;;;;;;;16.48;9.13;;;0.90;83.30;;;;;;5048249;28;20359;-65
2021/12/11 06:04:10;;;;;;;18.55;10.43;;;0.80;83.20;;;;;;5048037;28;20041;-65
2021/12/11 06:06:37;;;;;;;14.13;9.23;;;0.80;83.20;;;;;;5049556;28;20041;-65
2021/12/11 06:09:05;;;;;;;14.13;8.68;;;0.80;83.20;;;;;;5041978;28;20040;-66
2021/12/11 06:11:32;;;;;;;14.90;9.40;;;0.80;83.20;;;;;;5036582;28;20041;-65
2021/12/11 06:13:58;;;;;;;25.15;10.38;;;0.70;83.20;;;;;;5030628;28;20049;-65
2021/12/11 06:16:24;;;;;;;19.70;9.98;;;0.70;83.20;;;;;;5029693;28;20573;-65
2021/12/11 06:18:50;;;;;;;19.30;10.32;;;0.70;83.20;;;;;;5032925;28;20043;-65
2021/12/11 06:21:16;;;;;;;22.10;10.27;;;0.70;83.30;;;;;;5028873;28;20098;-65
2021/12/11 06:23:42;;;;;;;22.75;9.85;;;0.70;83.20;;;;;;5014090;28;20049;-65
2021/12/11 06:26:09;;;;;;;17.95;11.00;;;0.70;83.20;;;;;;5028957;28;20045;-65
2021/12/11 06:28:34;;;;;;;19.80;11.48;;;0.70;83.30;;;;;;5032559;28;20121;-66
2021/12/11 06:31:02;;;;;;;24.02;15.18;;;0.70;83.50;;;;;;5030792;28;20124;-65
2021/12/11 06:33:31;;;;;;;16.42;11.65;;;0.80;83.70;;;;;;5047211;28;20045;-65
2021/12/11 06:36:06;;;;;;;22.67;11.65;;;0.80;83.80;;;;;;5046620;28;20040;-65
2021/12/11 06:38:34;;;;;;;16.80;9.25;;;0.80;83.60;;;;;;5040530;28;20542;-66
2021/12/11 06:41:00;;;;;;;16.70;9.68;;;0.80;83.50;;;;;;5041206;28;20063;-66
2021/12/11 06:43:26;;;;;;;21.92;10.73;;;0.80;83.30;;;;;;5033610;28;20037;-66
2021/12/11 06:45:53;;;;;;;16.73;10.35;;;0.80;83.30;;;;;;5031664;28;20053;-65
2021/12/11 06:48:19;;;;;;;18.25;10.00;;;0.70;83.20;;;;;;5039544;28;20090;-66
2021/12/11 06:50:45;;;;;;;16.17;10.60;;;0.70;83.20;;;;;;5051969;28;20040;-66
2021/12/11 06:53:20;;;;;;;19.95;11.52;;;0.70;83.20;;;;;;5051787;28;20049;-65
2021/12/11 06:55:45;;;;;;;17.83;11.25;;;0.70;83.30;;;;;;5051780;28;20044;-66
2021/12/11 06:58:11;;;;;;;18.52;11.13;;;0.70;83.40;;;;;;5052136;28;20059;-66
2021/12/11 07:00:37;;;;;;;24.17;13.05;;;0.70;83.40;;;;;;5035030;28;20045;-66
2021/12/11 07:03:03;;;;;;;23.08;13.32;;;0.70;83.50;;;;;;5052358;28;20123;-66
2021/12/11 07:05:29;;;;;;;19.30;10.77;;;0.70;83.40;;;;;;5052228;28;20170;-66
2021/12/11 07:07:55;;;;;;;18.88;8.88;;;0.60;83.10;;;;;;5051779;28;20398;-66
2021/12/11 07:10:21;;;;;;;13.55;9.45;;;0.50;83.20;;;;;;5053046;28;20170;-66
2021/12/11 07:12:48;;;;;;;13.35;8.32;;;0.60;83.40;;;;;;5050264;28;20120;-66
2021/12/11 07:15:14;;;;;;;17.85;10.15;;;0.60;83.50;;;;;;5014323;28;20049;-66
2021/12/11 07:17:40;;;;;;;16.48;10.38;;;0.60;83.60;;;;;;5050028;28;20513;-66
2021/12/11 07:20:09;;;;;;;17.38;10.05;;;0.60;83.60;;;;;;5052410;28;20124;-66
2021/12/11 07:22:36;;;;;;;16.15;10.23;;;0.60;83.70;;;;;;5052586;28;20053;-66
2021/12/11 07:25:16;;;;;;;17.67;11.07;;;0.60;83.80;;;;;;5052234;28;20102;-66
2021/12/11 07:27:42;;;;;;;17.55;11.15;;;0.60;84.10;;;;;;5051911;28;20048;-66
2021/12/11 07:30:08;;;;;;;22.75;12.65;;;0.60;84.40;;;;;;5051761;28;20517;-65
2021/12/11 07:32:33;;;;;;;32.45;12.07;;;0.60;84.50;;;;;;5050147;28;20433;-67
2021/12/11 07:34:59;;;;;;;25.63;13.05;;;0.70;84.60;;;;;;5052331;28;20037;-66
2021/12/11 07:37:25;;;;;;;19.70;12.68;;;0.70;84.70;;;;;;5051483;28;20052;-66
2021/12/11 07:39:50;;;;;;;19.10;12.10;;;0.70;84.70;;;;;;5052192;28;20056;-66
2021/12/11 07:42:16;;;;;;;27.60;12.35;;;0.70;84.90;;;;;;5049359;28;20048;-66
2021/12/11 07:44:42;;;;;;;28.85;10.52;;;0.70;84.70;;;;;;5049057;28;20056;-66
2021/12/11 07:47:08;;;;;;;20.52;11.32;;;0.70;84.60;;;;;;5051886;28;20136;-66
2021/12/11 07:49:35;;;;;;;18.33;10.90;;;0.70;84.60;;;;;;5051523;28;20033;-65
2021/12/11 07:52:00;;;;;;;16.77;9.82;;;0.70;84.60;;;;;;5050761;28;20106;-66
2021/12/11 07:54:26;;;;;;;21.65;10.88;;;0.70;84.70;;;;;;5048067;28;20045;-66
2021/12/11 07:56:53;;;;;;;16.17;10.30;;;0.70;84.80;;;;;;5051278;28;20041;-66
2021/12/11 07:59:19;;;;;;;21.50;11.25;;;0.70;84.90;;;;;;5051856;28;20046;-65
2021/12/11 08:01:48;;;;;;;21.83;11.27;;;0.70;84.90;;;;;;5043189;28;20051;-66
2021/12/11 08:04:14;;;;;;;20.63;12.88;;;0.70;84.80;;;;;;5050769;28;20080;-66
2021/12/11 08:06:41;;;;;;;16.52;11.13;;;0.70;84.80;;;;;;5050659;28;20493;-66
2021/12/11 08:09:11;;;;;;;14.75;10.52;;;0.70;84.90;;;;;;5051307;28;20080;-66
2021/12/11 08:11:37;;;;;;;14.23;10.57;;;0.70;84.90;;;;;;5051303;28;20045;-66
2021/12/11 08:14:04;;;;;;;14.45;9.63;;;0.70;84.80;;;;;;5048149;28;20383;-66
2021/12/11 08:16:35;;;;;;;15.15;9.23;;;0.70;85.00;;;;;;5051370;28;20497;-66
2021/12/11 08:19:03;;;;;;;14.20;9.40;;;0.70;85.00;;;;;;5050750;28;20151;-65
2021/12/11 08:21:28;;;;;;;22.58;9.73;;;0.60;85.00;;;;;;5038564;28;20414;-66
2021/12/11 08:23:56;;;;;;;16.42;10.65;;;0.60;85.10;;;;;;5050868;28;20071;-66
2021/12/11 08:26:27;;;;;;;14.77;10.05;;;0.60;85.10;;;;;;5051279;28;20060;-66
2021/12/11 08:28:53;;;;;;;19.80;9.93;;;0.60;85.10;;;;;;5049684;28;20041;-66
2021/12/11 08:31:21;;;;;;;12.70;10.05;;;0.70;85.20;;;;;;5043124;28;20044;-66
2021/12/11 08:33:48;;;;;;;13.00;8.90;;;0.70;85.20;;;;;;5049707;28;20513;-66
2021/12/11 08:36:14;;;;;;;14.15;9.70;;;0.70;85.20;;;;;;5046642;28;20411;-66
2021/12/11 08:38:41;;;;;;;10.68;8.30;;;0.70;85.30;;;;;;5046330;28;20061;-65
2021/12/11 08:41:09;;;;;;;12.05;8.88;;;0.80;85.30;;;;;;5050674;28;20399;-66
2021/12/11 08:43:35;;;;;;;13.50;9.43;;;0.90;85.30;;;;;;5050990;28;20068;-66
2021/12/11 08:46:15;;;;;;;14.45;10.05;;;0.90;85.30;;;;;;5050002;28;20072;-65
2021/12/11 08:48:45;;;;;;;15.80;9.38;;;0.90;85.20;;;;;;5049453;28;20462;-66
2021/12/11 08:51:22;;;;;;;13.73;9.05;;;0.90;85.20;;;;;;5050860;28;20405;-66
2021/12/11 08:53:50;;;;;;;12.40;8.13;;;0.90;85.20;;;;;;5051247;28;20045;-66
2021/12/11 08:56:16;;;;;;;13.63;9.20;;;0.90;85.20;;;;;;5049463;28;20045;-66
2021/12/11 08:58:44;;;;;;;29.38;10.45;;;0.80;85.30;;;;;;5032664;28;20107;-66
2021/12/11 09:01:27;;;;;;;28.63;11.20;;;0.80;85.50;;;;;;5049972;28;20033;-66
2021/12/11 09:04:24;;;;;;;27.25;10.75;;;0.80;85.50;;;;;;5050584;28;20041;-66
2021/12/11 09:07:02;;;;;;;16.98;10.73;;;0.70;85.60;;;;;;5048696;28;20053;-66
2021/12/11 09:09:28;;;;;;;27.48;13.57;;;0.80;85.90;;;;;;5050393;28;20463;-66
2021/12/11 09:12:30;;;;;;;13.68;8.30;;;0.70;86.10;;;;;;5049978;28;20404;-67
2021/12/11 09:15:10;;;;;;;14.32;9.52;;;0.90;86.70;;;;;;5046852;28;20037;-66
2021/12/11 09:17:41;;;;;;;14.45;10.75;;;1.20;87.40;;;;;;5049753;28;20041;-64
2021/12/11 09:20:34;;;;;;;15.85;11.45;;;1.20;86.60;;;;;;5049001;28;20048;-64
2021/12/11 09:23:16;;;;;;;14.68;10.85;;;1.20;86.30;;;;;;5049574;28;20413;-64
2021/12/11 09:25:53;;;;;;;14.32;9.70;;;1.10;86.30;;;;;;5049992;28;20041;-64
2021/12/11 09:28:42;;;;;;;14.48;9.45;;;1.20;86.40;;;;;;5037455;28;20052;-64
2021/12/11 09:31:32;;;;;;;13.23;9.50;;;1.20;86.50;;;;;;5049550;28;20059;-64
2021/12/11 09:34:17;;;;;;;16.95;10.40;;;1.30;86.50;;;;;;5049020;28;20374;-64
2021/12/11 09:36:49;;;;;;;15.43;9.90;;;1.30;86.60;;;;;;5048770;28;20044;-65
2021/12/11 09:39:24;;;;;;;;;;;1.40;86.60;;;;;;5049452;28;20497;-64
2021/12/11 09:41:49;;;;;;;15.43;9.63;;;1.40;86.50;;;;;;5049067;28;20435;-64
2021/12/11 09:44:27;;;;;;;13.23;9.27;;;1.40;86.60;;;;;;5048825;28;20045;-64
2021/12/11 09:47:08;;;;;;;14.85;10.50;;;1.40;86.60;;;;;;5049030;28;20045;-64
2021/12/11 09:49:39;;;;;;;13.20;9.10;;;1.50;86.50;;;;;;5049637;28;20043;-64
2021/12/11 09:52:17;;;;;;;11.88;9.10;;;1.50;86.50;;;;;;5042954;28;20507;-64
2021/12/11 09:54:47;;;;;;;11.25;8.50;;;1.50;86.50;;;;;;5047234;28;21362;-64
2021/12/11 09:57:16;;;;;;;12.20;8.57;;;1.60;86.60;;;;;;5049614;28;20496;-64
2021/12/11 09:59:44;;;;;;;11.30;9.00;;;1.60;86.60;;;;;;5049542;28;20044;-64
2021/12/11 10:02:14;;;;;;;11.43;8.63;;;1.60;86.60;;;;;;5047713;28;20053;-64
2021/12/11 10:04:47;;;;;;;17.40;8.25;;;1.60;86.70;;;;;;5049320;28;20059;-64
2021/12/11 10:07:29;;;;;;;11.57;9.02;;;1.60;86.90;;;;;;5049276;28;20045;-64
2021/12/11 10:10:00;;;;;;;13.38;8.93;;;1.60;87.00;;;;;;5047392;28;20922;-64
2021/12/11 10:12:34;;;;;;;13.18;9.30;;;1.60;87.20;;;;;;5049408;28;20120;-64
2021/12/11 10:15:24;;;;;;;13.02;9.82;;;1.60;87.50;;;;;;5048818;28;20044;-64
2021/12/11 10:17:58;;;;;;;16.60;10.73;;;1.70;87.60;;;;;;5043946;28;20498;-64
2021/12/11 10:20:47;;;;;;;14.43;10.45;;;1.70;87.50;;;;;;5048614;28;20047;-64
2021/12/11 10:23:18;;;;;;;16.02;10.55;;;1.80;87.50;;;;;;5048381;28;20136;-65
2021/12/11 10:25:46;;;;;;;13.57;10.05;;;1.90;87.90;;;;;;5042476;28;20086;-64
2021/12/11 10:28:17;;;;;;;14.25;9.10;;;1.90;87.80;;;;;;5055180;28;20055;-63
2021/12/11 10:30:48;;;;;;;17.25;10.77;;;2.10;87.80;;;;;;5037733;28;20038;-64
2021/12/11 10:33:16;;;;;;;14.30;10.43;;;2.90;89.80;;;;;;5045597;28;20063;-64
2021/12/11 10:35:44;;;;;;;15.07;9.55;;;3.30;88.70;;;;;;5046484;28;20109;-65
2021/12/11 10:38:10;;;;;;;12.13;9.73;;;3.30;87.20;;;;;;5046503;28;20510;-65
2021/12/11 10:40:41;;;;;;;16.05;10.10;;;3.20;86.60;;;;;;5046098;28;20048;-64
2021/12/11 10:43:30;;;;;;;12.90;10.20;;;3.10;86.40;;;;;;5048289;28;20091;-64
2021/12/11 10:45:59;;;;;;;14.60;9.75;;;3.00;86.40;;;;;;5046708;28;20037;-65
2021/12/11 10:48:29;;;;;;;15.00;10.85;;;2.90;86.50;;;;;;5040126;28;20075;-65
2021/12/11 10:51:03;;;;;;;17.75;10.48;;;2.90;86.70;;;;;;5048053;28;20102;-64
2021/12/11 10:53:30;;;;;;;19.92;11.43;;;2.90;87.00;;;;;;5047928;28;20114;-65
2021/12/11 10:55:59;;;;;;;15.48;10.35;;;2.90;87.00;;;;;;5047652;28;20045;-65
2021/12/11 10:58:28;;;;;;;17.98;10.60;;;3.00;87.20;;;;;;5048652;28;20045;-64
2021/12/11 11:00:59;;;;;;;19.30;11.90;;;3.00;87.30;;;;;;5037812;28;20525;-65
2021/12/11 11:03:31;;;;;;;19.60;11.48;;;3.00;87.30;;;;;;5046567;28;20041;-65
2021/12/11 11:05:57;;;;;;;21.55;12.07;;;3.10;87.70;;;;;;5040972;28;20052;-65
2021/12/11 11:08:23;;;;;;;21.38;12.98;;;3.10;87.70;;;;;;5048121;28;20052;-65
2021/12/11 11:10:55;;;;;;;18.95;11.98;;;3.20;87.80;;;;;;5042477;28;20033;-65
2021/12/11 11:13:22;;;;;;;18.20;12.27;;;3.20;87.70;;;;;;5041242;28;20081;-65
2021/12/11 11:15:49;;;;;;;19.95;12.43;;;3.30;87.70;;;;;;5028782;28;20046;-65
2021/12/11 11:18:18;;;;;;;19.40;12.70;;;3.40;87.70;;;;;;5039970;28;20106;-65
2021/12/11 11:20:49;;;;;;;25.02;14.48;;;3.40;87.60;;;;;;5033357;28;20045;-65
2021/12/11 11:23:15;;;;;;;22.67;14.83;;;3.40;87.70;;;;;;5028104;28;20128;-65
2021/12/11 11:25:45;;;;;;;24.67;14.82;;;3.40;88.00;;;;;;5028434;28;20387;-65
2021/12/11 11:28:15;;;;;;;23.30;15.20;;;3.50;88.00;;;;;;5040141;28;20081;-65
2021/12/11 11:30:45;;;;;;;30.33;15.30;;;3.60;88.00;;;;;;5047170;28;20152;-65
2021/12/11 11:33:12;;;;;;;21.63;14.02;;;3.60;88.00;;;;;;5031883;28;20042;-65
2021/12/11 11:35:42;;;;;;;26.02;14.95;;;3.60;88.10;;;;;;5037043;28;20036;-64
2021/12/11 11:38:13;;;;;;;21.73;15.10;;;3.60;88.10;;;;;;5050686;28;20410;-64
2021/12/11 11:40:42;;;;;;;23.23;14.52;;;3.60;88.20;;;;;;5051149;28;20413;-64
2021/12/11 11:43:09;;;;;;;22.88;15.15;;;3.60;88.30;;;;;;5051287;28;20099;-64
2021/12/11 11:45:36;;;;;;;29.52;15.77;;;3.60;88.30;;;;;;5050460;28;20155;-64
2021/12/11 11:48:03;;;;;;;21.08;14.32;;;3.70;88.30;;;;;;5046918;28;20478;-64
2021/12/11 11:50:32;;;;;;;26.73;16.40;;;3.60;88.60;;;;;;5031055;28;20049;-64
2021/12/11 11:52:58;;;;;;;25.02;15.95;;;3.60;89.10;;;;;;5031963;28;20056;-64
2021/12/11 11:55:30;;;;;;;30.85;17.50;;;3.60;89.90;;;;;;5032179;28;20041;-63
2021/12/11 11:57:57;;;;;;;30.00;16.35;;;3.60;89.70;;;;;;5046873;28;20052;-64
2021/12/11 12:00:30;;;;;;;33.50;17.05;;;3.60;89.80;;;;;;5050444;28;20048;-64
2021/12/11 12:02:57;;;;;;;27.50;17.52;;;3.60;90.20;;;;;;5051504;28;20680;-63
2021/12/11 12:05:24;;;;;;;32.58;18.20;;;3.80;90.30;;;;;;5055990;28;20554;-63
2021/12/11 12:07:49;;;;;;;27.58;16.50;;;4.00;90.50;;;;;;5031546;28;20096;-64
2021/12/11 12:10:23;;;;;;;27.55;17.63;;;4.10;90.80;;;;;;5040822;28;20536;-64
2021/12/11 12:12:49;;;;;;;35.63;18.30;;;4.20;91.00;;;;;;5051304;28;20454;-64
2021/12/11 12:15:22;;;;;;;32.42;17.92;;;4.20;90.70;;;;;;5050808;28;20131;-64
2021/12/11 12:17:48;;;;;;;32.58;19.00;;;4.30;90.40;;;;;;5050621;28;20043;-65
2021/12/11 12:20:15;;;;;;;45.03;18.70;;;4.30;90.30;;;;;;5050621;28;20045;-64
2021/12/11 12:22:43;;;;;;;34.00;16.48;;;4.40;90.20;;;;;;5051398;28;20041;-64
2021/12/11 12:25:10;;;;;;;32.63;19.13;;;4.40;90.10;;;;;;5050011;28;20063;-64
2021/12/11 12:27:37;;;;;;;27.95;16.73;;;4.50;90.00;;;;;;5051156;28;20044;-64
2021/12/11 12:30:19;;;;;;;30.67;17.10;;;4.50;90.10;;;;;;5048187;28;20044;-64
2021/12/11 12:32:47;;;;;;;31.92;16.58;;;4.50;90.50;;;;;;5050979;28;20059;-64
2021/12/11 12:35:15;;;;;;;25.67;15.48;;;4.50;90.40;;;;;;5050208;28;20049;-64
2021/12/11 12:37:42;;;;;;;31.67;17.13;;;4.50;90.80;;;;;;5048389;28;20045;-64
2021/12/11 12:40:15;;;;;;;31.75;17.27;;;4.60;90.60;;;;;;5050129;28;20091;-64
2021/12/11 12:42:52;;;;;;;31.27;15.73;;;4.60;90.50;;;;;;5049998;28;20132;-64
2021/12/11 12:45:31;;;;;;;30.27;16.40;;;4.60;90.80;;;;;;5039304;28;20055;-64
2021/12/11 12:48:05;;;;;;;31.98;15.30;;;4.70;91.00;;;;;;5066012;28;20125;-64
2021/12/11 12:50:42;;;;;;;29.13;15.52;;;4.70;91.00;;;;;;5055634;28;20087;-64
2021/12/11 12:53:10;;;;;;;25.20;14.60;;;4.80;91.20;;;;;;5049774;28;20099;-64
2021/12/11 12:55:41;;;;;;;26.38;13.40;;;4.80;91.10;;;;;;5046289;28;20103;-64
2021/12/11 12:58:13;;;;;;;29.90;16.10;;;4.90;91.10;;;;;;5030866;28;20038;-64
2021/12/11 13:00:42;;;;;;;29.17;15.13;;;5.00;90.90;;;;;;5031606;28;20285;-65
2021/12/11 13:03:24;;;;;;;25.73;14.85;;;5.00;91.00;;;;;;5041466;28;20112;-64
2021/12/11 13:06:00;;;;;;;29.87;14.10;;;5.00;91.00;;;;;;5031750;28;20383;-65
2021/12/11 13:08:55;;;;;;;26.85;13.70;;;5.10;90.80;;;;;;5046745;28;20294;-65
2021/12/11 13:11:23;;;;;;;28.80;14.07;;;5.10;90.50;;;;;;5049214;28;20041;-65